sensor_id;sensor_type;location;lat;lon;timestamp;temperature;humidity
19033;DHT22;9649;51.042;13.804;2023-09-30T00:02:17;21.80;1.00
19033;DHT22;9649;51.042;13.804;2023-09-30T00:07:20;21.60;1.00
19033;DHT22;9649;51.042;13.804;2023-09-30T00:12:24;21.50;1.00
19033;DHT22;9649;51.042;13.804;2023-09-30T00:17:27;21.40;99.90
19033;DHT22;9649;51.042;13.804;2023-09-30T00:22:30;21.30;99.90
19033;DHT22;9649;51.042;13.804;2023-09-30T00:27:34;21.20;1.00
19033;DHT22;9649;51.042;13.804;2023-09-30T00:32:37;21.20;1.00
19033;DHT22;9649;51.042;13.804;2023-09-30T00:37:41;21.00;99.90
19033;DHT22;9649;51.042;13.804;2023-09-30T00:42:45;21.00;1.00
19033;DHT22;9649;51.042;13.804;2023-09-30T00:47:48;20.90;1.00
19033;DHT22;9649;51.042;13.804;2023-09-30T00:52:53;20.50;24.60
19033;DHT22;9649;51.042;13.804;2023-09-30T00:57:57;20.30;99.90
19033;DHT22;9649;51.042;13.804;2023-09-30T01:03:00;20.10;1.00
19033;DHT22;9649;51.042;13.804;2023-09-30T01:08:06;20.10;1.00
19033;DHT22;9649;51.042;13.804;2023-09-30T01:13:10;20.00;1.00
19033;DHT22;9649;51.042;13.804;2023-09-30T01:18:13;20.00;39.60
19033;DHT22;9649;51.042;13.804;2023-09-30T01:23:17;19.90;1.00
19033;DHT22;9649;51.042;13.804;2023-09-30T01:28:20;19.50;1.00
19033;DHT22;9649;51.042;13.804;2023-09-30T01:33:24;19.40;99.90
19033;DHT22;9649;51.042;13.804;2023-09-30T01:38:28;19.30;1.00
19033;DHT22;9649;51.042;13.804;2023-09-30T01:43:31;19.10;7.80
19033;DHT22;9649;51.042;13.804;2023-09-30T01:48:37;19.10;99.90
19033;DHT22;9649;51.042;13.804;2023-09-30T01:53:41;18.80;1.00
19033;DHT22;9649;51.042;13.804;2023-09-30T01:58:44;18.70;99.90
19033;DHT22;9649;51.042;13.804;2023-09-30T02:03:47;18.70;99.90
19033;DHT22;9649;51.042;13.804;2023-09-30T02:08:52;18.60;99.90
19033;DHT22;9649;51.042;13.804;2023-09-30T02:13:55;18.60;99.90
19033;DHT22;9649;51.042;13.804;2023-09-30T02:18:59;18.40;1.00
19033;DHT22;9649;51.042;13.804;2023-09-30T02:24:03;18.30;1.00
19033;DHT22;9649;51.042;13.804;2023-09-30T02:29:08;17.80;1.00
19033;DHT22;9649;51.042;13.804;2023-09-30T02:34:11;17.50;1.00
19033;DHT22;9649;51.042;13.804;2023-09-30T02:39:15;17.30;1.00
19033;DHT22;9649;51.042;13.804;2023-09-30T02:44:19;17.30;1.00
19033;DHT22;9649;51.042;13.804;2023-09-30T02:49:22;17.60;1.00
19033;DHT22;9649;51.042;13.804;2023-09-30T02:54:26;17.60;99.90
19033;DHT22;9649;51.042;13.804;2023-09-30T02:59:29;17.60;1.00
19033;DHT22;9649;51.042;13.804;2023-09-30T03:04:32;17.60;1.00
19033;DHT22;9649;51.042;13.804;2023-09-30T03:09:36;17.60;99.90
19033;DHT22;9649;51.042;13.804;2023-09-30T03:14:39;17.60;1.00
19033;DHT22;9649;51.042;13.804;2023-09-30T03:19:42;17.70;99.90
19033;DHT22;9649;51.042;13.804;2023-09-30T03:24:46;17.70;99.90
19033;DHT22;9649;51.042;13.804;2023-09-30T03:29:49;17.60;1.00
19033;DHT22;9649;51.042;13.804;2023-09-30T03:34:52;17.50;99.90
19033;DHT22;9649;51.042;13.804;2023-09-30T03:39:56;17.40;1.00
19033;DHT22;9649;51.042;13.804;2023-09-30T03:44:59;17.20;1.00
19033;DHT22;9649;51.042;13.804;2023-09-30T03:50:02;17.00;1.00
19033;DHT22;9649;51.042;13.804;2023-09-30T03:55:07;16.90;1.00
19033;DHT22;9649;51.042;13.804;2023-09-30T04:00:14;16.80;6.40
19033;DHT22;9649;51.042;13.804;2023-09-30T04:05:21;16.80;99.90
19033;DHT22;9649;51.042;13.804;2023-09-30T04:10:31;16.70;1.00
19033;DHT22;9649;51.042;13.804;2023-09-30T04:15:34;16.70;99.90
19033;DHT22;9649;51.042;13.804;2023-09-30T04:20:39;16.70;99.90
19033;DHT22;9649;51.042;13.804;2023-09-30T04:25:43;16.40;1.00
19033;DHT22;9649;51.042;13.804;2023-09-30T04:30:47;16.20;1.00
19033;DHT22;9649;51.042;13.804;2023-09-30T04:35:51;16.10;99.90
19033;DHT22;9649;51.042;13.804;2023-09-30T04:40:55;15.80;99.90
19033;DHT22;9649;51.042;13.804;2023-09-30T04:45:59;15.60;1.00
19033;DHT22;9649;51.042;13.804;2023-09-30T04:51:06;15.50;99.90
19033;DHT22;9649;51.042;13.804;2023-09-30T04:56:12;15.50;1.00
19033;DHT22;9649;51.042;13.804;2023-09-30T05:01:15;15.50;99.90
19033;DHT22;9649;51.042;13.804;2023-09-30T05:06:20;15.30;1.00
19033;DHT22;9649;51.042;13.804;2023-09-30T05:11:24;15.40;1.00
19033;DHT22;9649;51.042;13.804;2023-09-30T05:16:27;15.30;1.00
19033;DHT22;9649;51.042;13.804;2023-09-30T05:21:31;15.30;48.50
19033;DHT22;9649;51.042;13.804;2023-09-30T05:26:35;15.50;1.00
19033;DHT22;9649;51.042;13.804;2023-09-30T05:31:38;15.70;99.90
19033;DHT22;9649;51.042;13.804;2023-09-30T05:36:41;15.80;1.00
19033;DHT22;9649;51.042;13.804;2023-09-30T05:41:47;16.00;1.00
19033;DHT22;9649;51.042;13.804;2023-09-30T05:46:49;16.00;1.00
19033;DHT22;9649;51.042;13.804;2023-09-30T05:51:52;16.00;1.00
19033;DHT22;9649;51.042;13.804;2023-09-30T05:56:58;16.00;1.00
19033;DHT22;9649;51.042;13.804;2023-09-30T06:02:02;15.80;99.90
19033;DHT22;9649;51.042;13.804;2023-09-30T06:07:06;15.70;1.00
19033;DHT22;9649;51.042;13.804;2023-09-30T06:12:11;15.90;69.10
19033;DHT22;9649;51.042;13.804;2023-09-30T06:17:14;15.90;99.90
19033;DHT22;9649;51.042;13.804;2023-09-30T06:22:17;15.80;1.00
19033;DHT22;9649;51.042;13.804;2023-09-30T06:27:21;15.70;1.00
19033;DHT22;9649;51.042;13.804;2023-09-30T06:32:24;15.90;1.00
19033;DHT22;9649;51.042;13.804;2023-09-30T06:37:27;16.10;1.00
19033;DHT22;9649;51.042;13.804;2023-09-30T06:42:32;16.20;99.90
19033;DHT22;9649;51.042;13.804;2023-09-30T06:47:36;16.40;1.00
19033;DHT22;9649;51.042;13.804;2023-09-30T06:52:41;16.80;1.00
19033;DHT22;9649;51.042;13.804;2023-09-30T06:57:45;17.00;1.00
19033;DHT22;9649;51.042;13.804;2023-09-30T07:02:48;16.60;99.90
19033;DHT22;9649;51.042;13.804;2023-09-30T07:07:51;16.70;14.30
19033;DHT22;9649;51.042;13.804;2023-09-30T07:12:56;16.30;1.00
19033;DHT22;9649;51.042;13.804;2023-09-30T07:17:58;16.20;1.00
19033;DHT22;9649;51.042;13.804;2023-09-30T07:23:02;16.40;99.90
19033;DHT22;9649;51.042;13.804;2023-09-30T07:28:20;17.10;1.00
19033;DHT22;9649;51.042;13.804;2023-09-30T07:33:23;17.80;99.90
19033;DHT22;9649;51.042;13.804;2023-09-30T07:38:26;18.30;1.00
19033;DHT22;9649;51.042;13.804;2023-09-30T07:43:30;18.10;99.90
19033;DHT22;9649;51.042;13.804;2023-09-30T07:48:33;20.30;1.00
19033;DHT22;9649;51.042;13.804;2023-09-30T07:53:36;22.30;1.00
19033;DHT22;9649;51.042;13.804;2023-09-30T07:58:41;23.40;1.00
19033;DHT22;9649;51.042;13.804;2023-09-30T08:03:44;23.00;1.00
19033;DHT22;9649;51.042;13.804;2023-09-30T08:08:47;24.50;1.00
19033;DHT22;9649;51.042;13.804;2023-09-30T08:13:51;23.90;99.90
19033;DHT22;9649;51.042;13.804;2023-09-30T08:18:54;22.30;1.00
19033;DHT22;9649;51.042;13.804;2023-09-30T08:23:58;21.00;1.00
19033;DHT22;9649;51.042;13.804;2023-09-30T08:29:03;21.00;1.00
19033;DHT22;9649;51.042;13.804;2023-09-30T08:34:06;20.20;1.00
19033;DHT22;9649;51.042;13.804;2023-09-30T08:39:08;20.50;1.00
19033;DHT22;9649;51.042;13.804;2023-09-30T08:44:13;21.80;1.00
19033;DHT22;9649;51.042;13.804;2023-09-30T08:49:18;21.80;1.00
19033;DHT22;9649;51.042;13.804;2023-09-30T08:54:21;21.80;1.00
19033;DHT22;9649;51.042;13.804;2023-09-30T08:59:27;24.20;99.90
19033;DHT22;9649;51.042;13.804;2023-09-30T09:04:32;23.90;99.90
19033;DHT22;9649;51.042;13.804;2023-09-30T09:09:35;26.70;99.90
19033;DHT22;9649;51.042;13.804;2023-09-30T09:14:41;25.40;99.90
19033;DHT22;9649;51.042;13.804;2023-09-30T09:19:59;26.80;99.90
19033;DHT22;9649;51.042;13.804;2023-09-30T09:25:03;26.30;99.90
19033;DHT22;9649;51.042;13.804;2023-09-30T09:30:18;26.70;99.90
19033;DHT22;9649;51.042;13.804;2023-09-30T09:35:22;26.80;99.90
19033;DHT22;9649;51.042;13.804;2023-09-30T09:40:29;26.10;99.90
19033;DHT22;9649;51.042;13.804;2023-09-30T09:45:36;25.70;99.90
19033;DHT22;9649;51.042;13.804;2023-09-30T09:50:41;25.40;99.90
19033;DHT22;9649;51.042;13.804;2023-09-30T09:55:47;26.40;99.90
19033;DHT22;9649;51.042;13.804;2023-09-30T10:00:53;33.50;99.90
19033;DHT22;9649;51.042;13.804;2023-09-30T10:06:01;34.40;99.90
19033;DHT22;9649;51.042;13.804;2023-09-30T10:11:06;32.80;82.00
19033;DHT22;9649;51.042;13.804;2023-09-30T10:16:49;28.60;84.20
19033;DHT22;9649;51.042;13.804;2023-09-30T10:22:22;29.90;99.90
19033;DHT22;9649;51.042;13.804;2023-09-30T10:27:34;33.00;84.80
19033;DHT22;9649;51.042;13.804;2023-09-30T10:33:14;37.20;31.00
19033;DHT22;9649;51.042;13.804;2023-09-30T10:38:39;35.40;6.50
19033;DHT22;9649;51.042;13.804;2023-09-30T10:43:47;32.80;12.10
19033;DHT22;9649;51.042;13.804;2023-09-30T10:48:52;32.00;1.00
19033;DHT22;9649;51.042;13.804;2023-09-30T10:53:56;33.50;1.00
19033;DHT22;9649;51.042;13.804;2023-09-30T10:59:02;35.10;1.00
19033;DHT22;9649;51.042;13.804;2023-09-30T11:04:08;35.60;1.00
19033;DHT22;9649;51.042;13.804;2023-09-30T11:09:16;35.90;1.00
19033;DHT22;9649;51.042;13.804;2023-09-30T11:14:22;36.80;1.00
19033;DHT22;9649;51.042;13.804;2023-09-30T11:19:36;36.80;1.00
19033;DHT22;9649;51.042;13.804;2023-09-30T11:24:51;34.20;1.00
19033;DHT22;9649;51.042;13.804;2023-09-30T11:30:16;35.70;1.00
19033;DHT22;9649;51.042;13.804;2023-09-30T11:35:41;38.70;1.00
19033;DHT22;9649;51.042;13.804;2023-09-30T11:41:12;39.60;1.00
19033;DHT22;9649;51.042;13.804;2023-09-30T11:46:24;38.90;1.00
19033;DHT22;9649;51.042;13.804;2023-09-30T11:51:44;34.20;1.00
19033;DHT22;9649;51.042;13.804;2023-09-30T11:56:57;33.50;1.00
19033;DHT22;9649;51.042;13.804;2023-09-30T12:02:19;36.30;1.00
19033;DHT22;9649;51.042;13.804;2023-09-30T12:07:52;41.30;1.00
19033;DHT22;9649;51.042;13.804;2023-09-30T12:13:05;40.20;1.00
19033;DHT22;9649;51.042;13.804;2023-09-30T12:18:32;37.10;1.00
19033;DHT22;9649;51.042;13.804;2023-09-30T12:23:48;34.40;1.00
19033;DHT22;9649;51.042;13.804;2023-09-30T12:28:56;35.80;1.00
19033;DHT22;9649;51.042;13.804;2023-09-30T12:34:00;30.00;1.00
19033;DHT22;9649;51.042;13.804;2023-09-30T12:39:07;31.70;1.00
19033;DHT22;9649;51.042;13.804;2023-09-30T12:44:39;36.70;1.00
19033;DHT22;9649;51.042;13.804;2023-09-30T12:49:54;36.60;1.00
19033;DHT22;9649;51.042;13.804;2023-09-30T12:55:17;37.90;1.00
19033;DHT22;9649;51.042;13.804;2023-09-30T13:00:36;37.70;1.00
19033;DHT22;9649;51.042;13.804;2023-09-30T13:06:23;37.00;1.00
19033;DHT22;9649;51.042;13.804;2023-09-30T13:11:46;35.90;1.00
19033;DHT22;9649;51.042;13.804;2023-09-30T13:17:01;35.30;1.00
19033;DHT22;9649;51.042;13.804;2023-09-30T13:22:12;35.40;1.00
19033;DHT22;9649;51.042;13.804;2023-09-30T13:27:45;33.30;1.00
19033;DHT22;9649;51.042;13.804;2023-09-30T13:33:00;34.30;1.00
19033;DHT22;9649;51.042;13.804;2023-09-30T13:38:16;36.30;1.00
19033;DHT22;9649;51.042;13.804;2023-09-30T13:43:28;36.70;1.00
19033;DHT22;9649;51.042;13.804;2023-09-30T13:48:42;36.40;1.00
19033;DHT22;9649;51.042;13.804;2023-09-30T13:53:51;35.30;1.00
19033;DHT22;9649;51.042;13.804;2023-09-30T13:59:20;36.70;1.00
19033;DHT22;9649;51.042;13.804;2023-09-30T14:04:35;34.80;1.00
19033;DHT22;9649;51.042;13.804;2023-09-30T14:09:38;33.90;1.00
19033;DHT22;9649;51.042;13.804;2023-09-30T14:14:47;34.90;1.00
19033;DHT22;9649;51.042;13.804;2023-09-30T14:20:02;34.00;1.00
19033;DHT22;9649;51.042;13.804;2023-09-30T14:25:15;33.10;1.00
19033;DHT22;9649;51.042;13.804;2023-09-30T14:30:28;32.00;1.00
19033;DHT22;9649;51.042;13.804;2023-09-30T14:35:48;32.40;1.00
19033;DHT22;9649;51.042;13.804;2023-09-30T14:41:14;32.40;1.00
19033;DHT22;9649;51.042;13.804;2023-09-30T14:46:44;32.60;1.00
19033;DHT22;9649;51.042;13.804;2023-09-30T14:52:06;33.90;1.00
19033;DHT22;9649;51.042;13.804;2023-09-30T14:57:12;32.90;1.00
19033;DHT22;9649;51.042;13.804;2023-09-30T15:02:29;32.60;1.00
19033;DHT22;9649;51.042;13.804;2023-09-30T15:07:32;31.60;1.00
19033;DHT22;9649;51.042;13.804;2023-09-30T15:12:44;31.10;1.00
19033;DHT22;9649;51.042;13.804;2023-09-30T15:17:48;29.80;1.00
19033;DHT22;9649;51.042;13.804;2023-09-30T15:22:51;30.10;1.00
19033;DHT22;9649;51.042;13.804;2023-09-30T15:27:57;28.80;1.00
19033;DHT22;9649;51.042;13.804;2023-09-30T15:33:01;27.80;1.00
19033;DHT22;9649;51.042;13.804;2023-09-30T15:38:05;26.30;1.00
19033;DHT22;9649;51.042;13.804;2023-09-30T15:43:12;26.40;1.00
19033;DHT22;9649;51.042;13.804;2023-09-30T15:48:16;25.10;1.00
19033;DHT22;9649;51.042;13.804;2023-09-30T15:53:24;24.10;1.00
19033;DHT22;9649;51.042;13.804;2023-09-30T15:58:35;23.30;1.00
19033;DHT22;9649;51.042;13.804;2023-09-30T16:03:40;22.80;1.00
19033;DHT22;9649;51.042;13.804;2023-09-30T16:08:47;22.30;11.20
19033;DHT22;9649;51.042;13.804;2023-09-30T16:13:53;21.80;11.30
19033;DHT22;9649;51.042;13.804;2023-09-30T16:18:57;21.30;26.70
19033;DHT22;9649;51.042;13.804;2023-09-30T16:24:00;21.00;53.90
19033;DHT22;9649;51.042;13.804;2023-09-30T16:29:03;20.60;86.00
19033;DHT22;9649;51.042;13.804;2023-09-30T16:34:08;20.40;96.10
19033;DHT22;9649;51.042;13.804;2023-09-30T16:39:11;20.00;99.90
19033;DHT22;9649;51.042;13.804;2023-09-30T16:44:16;19.70;99.90
19033;DHT22;9649;51.042;13.804;2023-09-30T16:49:20;19.20;99.90
19033;DHT22;9649;51.042;13.804;2023-09-30T16:54:23;18.90;99.90
19033;DHT22;9649;51.042;13.804;2023-09-30T16:59:26;18.70;99.90
19033;DHT22;9649;51.042;13.804;2023-09-30T17:04:30;18.30;99.90
19033;DHT22;9649;51.042;13.804;2023-09-30T17:09:33;18.10;99.90
19033;DHT22;9649;51.042;13.804;2023-09-30T17:14:36;18.00;99.90
19033;DHT22;9649;51.042;13.804;2023-09-30T17:19:40;17.90;99.90
19033;DHT22;9649;51.042;13.804;2023-09-30T17:24:43;17.50;99.90
19033;DHT22;9649;51.042;13.804;2023-09-30T17:29:46;17.30;1.00
19033;DHT22;9649;51.042;13.804;2023-09-30T17:34:50;17.10;1.00
19033;DHT22;9649;51.042;13.804;2023-09-30T17:39:53;17.00;1.00
19033;DHT22;9649;51.042;13.804;2023-09-30T17:44:56;16.80;1.00
19033;DHT22;9649;51.042;13.804;2023-09-30T17:50:00;16.60;1.00
19033;DHT22;9649;51.042;13.804;2023-09-30T17:55:06;16.60;1.00
19033;DHT22;9649;51.042;13.804;2023-09-30T18:00:10;16.40;1.00
19033;DHT22;9649;51.042;13.804;2023-09-30T18:05:16;16.50;1.00
19033;DHT22;9649;51.042;13.804;2023-09-30T18:10:20;16.30;18.00
19033;DHT22;9649;51.042;13.804;2023-09-30T18:15:23;16.10;99.90
19033;DHT22;9649;51.042;13.804;2023-09-30T18:20:28;15.90;1.00
19033;DHT22;9649;51.042;13.804;2023-09-30T18:25:31;15.80;1.00
19033;DHT22;9649;51.042;13.804;2023-09-30T18:30:38;15.60;1.00
19033;DHT22;9649;51.042;13.804;2023-09-30T18:35:43;15.70;1.00
19033;DHT22;9649;51.042;13.804;2023-09-30T18:40:46;15.60;1.00
19033;DHT22;9649;51.042;13.804;2023-09-30T18:45:49;15.40;99.90
19033;DHT22;9649;51.042;13.804;2023-09-30T18:50:53;15.20;99.90
19033;DHT22;9649;51.042;13.804;2023-09-30T18:55:56;15.10;99.90
19033;DHT22;9649;51.042;13.804;2023-09-30T19:00:59;15.00;99.90
19033;DHT22;9649;51.042;13.804;2023-09-30T19:06:04;15.00;41.00
19033;DHT22;9649;51.042;13.804;2023-09-30T19:11:06;15.10;1.00
19033;DHT22;9649;51.042;13.804;2023-09-30T19:16:11;15.20;1.00
19033;DHT22;9649;51.042;13.804;2023-09-30T19:21:17;15.00;1.00
19033;DHT22;9649;51.042;13.804;2023-09-30T19:26:20;15.10;67.90
19033;DHT22;9649;51.042;13.804;2023-09-30T19:31:23;15.00;92.80
19033;DHT22;9649;51.042;13.804;2023-09-30T19:36:27;14.90;99.90
19033;DHT22;9649;51.042;13.804;2023-09-30T19:41:30;14.70;99.90
19033;DHT22;9649;51.042;13.804;2023-09-30T19:46:33;14.50;1.00
19033;DHT22;9649;51.042;13.804;2023-09-30T19:51:37;14.40;1.00
19033;DHT22;9649;51.042;13.804;2023-09-30T19:56:40;14.50;1.00
19033;DHT22;9649;51.042;13.804;2023-09-30T20:01:43;14.30;1.00
19033;DHT22;9649;51.042;13.804;2023-09-30T20:06:47;14.10;1.00
19033;DHT22;9649;51.042;13.804;2023-09-30T20:11:51;14.00;99.90
19033;DHT22;9649;51.042;13.804;2023-09-30T20:16:58;13.80;99.90
19033;DHT22;9649;51.042;13.804;2023-09-30T20:22:02;13.70;1.00
19033;DHT22;9649;51.042;13.804;2023-09-30T20:27:06;13.60;1.00
19033;DHT22;9649;51.042;13.804;2023-09-30T20:32:11;13.50;1.00
19033;DHT22;9649;51.042;13.804;2023-09-30T20:37:17;13.60;1.00
19033;DHT22;9649;51.042;13.804;2023-09-30T20:42:20;13.60;1.00
19033;DHT22;9649;51.042;13.804;2023-09-30T20:47:23;13.50;46.90
19033;DHT22;9649;51.042;13.804;2023-09-30T20:52:27;13.50;99.90
19033;DHT22;9649;51.042;13.804;2023-09-30T20:57:30;13.30;99.90
19033;DHT22;9649;51.042;13.804;2023-09-30T21:02:33;13.30;99.90
19033;DHT22;9649;51.042;13.804;2023-09-30T21:07:38;13.20;1.00
19033;DHT22;9649;51.042;13.804;2023-09-30T21:12:40;13.20;1.00
19033;DHT22;9649;51.042;13.804;2023-09-30T21:17:44;13.10;1.00
19033;DHT22;9649;51.042;13.804;2023-09-30T21:22:48;13.00;1.00
19033;DHT22;9649;51.042;13.804;2023-09-30T21:27:51;13.00;99.90
19033;DHT22;9649;51.042;13.804;2023-09-30T21:32:55;12.80;1.00
19033;DHT22;9649;51.042;13.804;2023-09-30T21:38:00;12.60;1.00
19033;DHT22;9649;51.042;13.804;2023-09-30T21:43:03;12.50;1.00
19033;DHT22;9649;51.042;13.804;2023-09-30T21:48:06;12.50;99.90
19033;DHT22;9649;51.042;13.804;2023-09-30T21:53:10;12.60;99.90
19033;DHT22;9649;51.042;13.804;2023-09-30T21:58:14;12.50;99.90
19033;DHT22;9649;51.042;13.804;2023-09-30T22:03:17;12.40;1.00
19033;DHT22;9649;51.042;13.804;2023-09-30T22:08:22;12.20;1.00
19033;DHT22;9649;51.042;13.804;2023-09-30T22:13:25;12.10;99.90
19033;DHT22;9649;51.042;13.804;2023-09-30T22:18:28;12.10;44.70
19033;DHT22;9649;51.042;13.804;2023-09-30T22:23:32;12.20;1.00
19033;DHT22;9649;51.042;13.804;2023-09-30T22:28:35;12.10;99.90
19033;DHT22;9649;51.042;13.804;2023-09-30T22:33:38;12.00;1.00
19033;DHT22;9649;51.042;13.804;2023-09-30T22:38:42;12.00;1.00
19033;DHT22;9649;51.042;13.804;2023-09-30T22:43:45;11.90;99.90
19033;DHT22;9649;51.042;13.804;2023-09-30T22:48:48;11.80;1.60
19033;DHT22;9649;51.042;13.804;2023-09-30T22:53:53;11.70;99.90
19033;DHT22;9649;51.042;13.804;2023-09-30T22:58:56;11.50;99.90
19033;DHT22;9649;51.042;13.804;2023-09-30T23:03:59;11.30;1.00
19033;DHT22;9649;51.042;13.804;2023-09-30T23:09:06;11.20;14.50
19033;DHT22;9649;51.042;13.804;2023-09-30T23:14:10;11.40;1.00
19033;DHT22;9649;51.042;13.804;2023-09-30T23:19:13;11.60;1.00
19033;DHT22;9649;51.042;13.804;2023-09-30T23:24:17;11.70;1.00
19033;DHT22;9649;51.042;13.804;2023-09-30T23:29:20;11.50;99.90
19033;DHT22;9649;51.042;13.804;2023-09-30T23:34:23;11.30;1.00
19033;DHT22;9649;51.042;13.804;2023-09-30T23:39:28;11.30;1.00
19033;DHT22;9649;51.042;13.804;2023-09-30T23:44:32;11.40;1.00
19033;DHT22;9649;51.042;13.804;2023-09-30T23:49:37;11.50;61.10
19033;DHT22;9649;51.042;13.804;2023-09-30T23:54:43;11.40;99.90
19033;DHT22;9649;51.042;13.804;2023-09-30T23:59:47;11.20;1.00
